SAOC/RCU METAR and TAF weather

Enter ICAO airport designator
Station Type Date Time Source
SAOC METAR 2022/08/16 19:00 UTC NOAA

SAOC 161900Z 05014KT CAVOK 24/M09 Q1002


Station Type Date Time Source
SAOC Decoded METAR 2022/08/16 19:00 UTC NOAA

Rio Cuarto Aerodrome, Argentina (SAOC) 33-07S 064-14W 421M
Aug 16, 2022 - 03:00 PM EDT / 2022.08.16 1900 UTC
Wind: from the NE (050 degrees) at 16 MPH (14 KT):0
Visibility: greater than 7 mile(s):0
Temperature: 75 F (24 C)
Dew Point: 15 F (-9 C)
Relative Humidity: 10%
Pressure (altimeter): 29.59 in. Hg (1002 hPa)
ob: SAOC 161900Z 05014KT CAVOK 24/M09 Q1002
cycle: 19

Station Type Date Time Source
SAOC TAF 2022/08/08 22:06 UTC NOAA

TAF TAF
AMD SAOC 082210Z 0822/0918 14005KT 0200 DZRA FG OVC005 TX14/0918Z TN02/0910Z
BECMG 0913/0915 02005KT 9999 NSW SCT020

Example: see airport list